createdAt,value
2022-12-17T00:02:39.886Z,98589.81
2022-12-17T00:05:28.643Z,98596.28
2022-12-17T00:08:19.150Z,98590.25
2022-12-17T00:11:05.436Z,98598.69
2022-12-17T00:13:51.722Z,98593.81
2022-12-17T00:16:39.639Z,98601.97
2022-12-17T00:19:29.130Z,98602.09
2022-12-17T00:22:16.318Z,98605.28
2022-12-17T00:25:03.727Z,98601.81
2022-12-17T00:27:51.371Z,98603.72
2022-12-17T00:30:39.161Z,98605.66
2022-12-17T00:33:25.901Z,98603.03
2022-12-17T00:36:14.113Z,98603.84
2022-12-17T00:38:59.917Z,98611.44
2022-12-17T00:41:47.639Z,98612.19
2022-12-17T00:44:34.267Z,98612.72
2022-12-17T00:47:20.018Z,98609.31
2022-12-17T00:50:06.110Z,98616.81
2022-12-17T00:52:54.520Z,98616.06
2022-12-17T00:55:42.797Z,98623.84
2022-12-17T00:58:29.823Z,98621.47
2022-12-17T01:01:18.422Z,98623.00
2022-12-17T01:04:05.067Z,98625.50
2022-12-17T01:06:52.787Z,98633.28
2022-12-17T01:09:42.495Z,98635.88
2022-12-17T01:12:30.253Z,98631.00
2022-12-17T01:15:16.975Z,98628.44
2022-12-17T01:18:04.149Z,98630.28
2022-12-17T01:20:51.709Z,98639.47
2022-12-17T01:23:39.340Z,98641.34
2022-12-17T01:26:28.096Z,98644.84
2022-12-17T01:29:17.516Z,98652.28
2022-12-17T01:32:06.270Z,98658.19
2022-12-17T01:34:53.166Z,98659.03
2022-12-17T01:37:39.793Z,98666.50
2022-12-17T01:40:29.870Z,98665.56
2022-12-17T01:43:18.700Z,98671.78
2022-12-17T01:46:08.655Z,98680.00
2022-12-17T01:49:02.357Z,98682.41
2022-12-17T01:51:58.750Z,98681.66
2022-12-17T01:54:57.783Z,98687.84
2022-12-17T01:57:45.593Z,98690.59
2022-12-17T02:00:37.804Z,98696.47
2022-12-17T02:03:24.655Z,98698.88
2022-12-17T02:06:22.771Z,98695.44
2022-12-17T02:09:23.584Z,98698.63
2022-12-17T02:12:25.146Z,98704.56
2022-12-17T02:15:23.800Z,98694.16
2022-12-17T02:18:18.936Z,98700.19
2022-12-17T02:21:09.876Z,98702.97
2022-12-17T02:24:13.552Z,98707.22
2022-12-17T02:27:04.587Z,98707.41
2022-12-17T02:29:57.174Z,98701.41
2022-12-17T02:32:45.408Z,98701.06
2022-12-17T02:35:36.183Z,98696.25
2022-12-17T02:38:37.119Z,98701.19
2022-12-17T02:41:26.317Z,98702.00
2022-12-17T02:44:16.079Z,98700.41
2022-12-17T02:47:05.665Z,98701.25
2022-12-17T02:49:52.801Z,98704.72
2022-12-17T02:52:41.216Z,98701.75
2022-12-17T02:55:30.679Z,98698.00
2022-12-17T02:58:18.135Z,98709.81
2022-12-17T03:01:06.592Z,98709.97
2022-12-17T03:03:53.975Z,98710.91
2022-12-17T03:06:41.198Z,98708.59
2022-12-17T03:09:27.828Z,98718.72
2022-12-17T03:12:15.134Z,98721.56
2022-12-17T03:15:02.593Z,98723.06
2022-12-17T03:17:51.602Z,98717.13
2022-12-17T03:20:39.474Z,98727.44
2022-12-17T03:23:35.360Z,98726.84
2022-12-17T03:26:25.206Z,98728.63
2022-12-17T03:29:12.713Z,98731.25
2022-12-17T03:31:59.776Z,98732.91
2022-12-17T03:34:48.077Z,98731.06
2022-12-17T03:37:34.776Z,98729.50
2022-12-17T03:40:22.189Z,98740.47
2022-12-17T03:43:09.788Z,98734.06
2022-12-17T03:45:57.360Z,98732.38
2022-12-17T03:48:59.563Z,98734.78
2022-12-17T03:51:47.912Z,98741.59
2022-12-17T03:54:35.888Z,98739.84
2022-12-17T03:57:37.126Z,98744.81
2022-12-17T04:00:25.344Z,98741.41
2022-12-17T04:03:13.093Z,98744.91
2022-12-17T04:06:08.816Z,98746.66
2022-12-17T04:08:57.133Z,98748.41
2022-12-17T04:11:44.362Z,98753.81
2022-12-17T04:14:32.150Z,98754.53
2022-12-17T04:17:19.958Z,98756.34
2022-12-17T04:20:07.691Z,98762.28
2022-12-17T04:22:55.084Z,98761.47
2022-12-17T04:25:57.149Z,98771.59
2022-12-17T04:28:44.189Z,98765.88
2022-12-17T04:31:31.796Z,98764.13
2022-12-17T04:34:19.307Z,98775.81
2022-12-17T04:37:06.361Z,98782.69
2022-12-17T04:39:54.271Z,98782.81
2022-12-17T04:42:42.539Z,98791.97
2022-12-17T04:45:30.721Z,98797.84
2022-12-17T04:48:29.168Z,98802.94
2022-12-17T04:51:16.675Z,98801.34
2022-12-17T04:54:04.856Z,98797.13
2022-12-17T04:57:03.396Z,98808.44
2022-12-17T04:59:52.270Z,98808.00
2022-12-17T05:02:42.670Z,98803.03
2022-12-17T05:05:31.148Z,98806.25
2022-12-17T05:08:18.344Z,98797.47
2022-12-17T05:11:05.018Z,98807.91
2022-12-17T05:13:52.932Z,98806.97
2022-12-17T05:16:43.079Z,98806.72
2022-12-17T05:19:30.266Z,98817.41
2022-12-17T05:22:17.026Z,98812.34
2022-12-17T05:25:04.208Z,98819.81
2022-12-17T05:27:50.834Z,98817.28
2022-12-17T05:30:38.659Z,98823.19
2022-12-17T05:33:28.566Z,98826.78
2022-12-17T05:36:20.784Z,98821.53
2022-12-17T05:39:08.165Z,98831.69
2022-12-17T05:41:54.871Z,98832.69
2022-12-17T05:44:42.979Z,98829.34
2022-12-17T05:47:30.162Z,98829.25
2022-12-17T05:50:17.857Z,98834.28
2022-12-17T05:53:06.165Z,98830.72
2022-12-17T05:55:53.761Z,98843.53
2022-12-17T05:58:40.680Z,98849.50
2022-12-17T06:01:28.127Z,98857.09
2022-12-17T06:04:15.515Z,98852.28
2022-12-17T06:07:04.339Z,98856.53
2022-12-17T06:09:51.392Z,98868.28
2022-12-17T06:12:38.362Z,98866.75
2022-12-17T06:15:31.674Z,98876.78
2022-12-17T06:18:23.606Z,98872.53
2022-12-17T06:21:15.745Z,98877.75
2022-12-17T06:24:07.092Z,98876.91
2022-12-17T06:26:55.559Z,98882.88
2022-12-17T06:29:42.839Z,98886.69
2022-12-17T06:32:36.755Z,98889.31
2022-12-17T06:35:39.805Z,98885.22
2022-12-17T06:38:29.683Z,98892.22
2022-12-17T06:41:21.659Z,98894.66
2022-12-17T06:44:10.277Z,98893.63
2022-12-17T06:46:58.352Z,98899.63
2022-12-17T06:49:46.333Z,98908.03
2022-12-17T06:52:35.235Z,98906.28
2022-12-17T06:55:42.526Z,98914.63
2022-12-17T06:58:32.559Z,98912.16
2022-12-17T07:01:20.363Z,98911.31
2022-12-17T07:04:09.097Z,98932.41
2022-12-17T07:06:56.361Z,98930.06
2022-12-17T07:09:45.572Z,98936.19
2022-12-17T07:12:35.874Z,98934.69
2022-12-17T07:15:31.817Z,98935.34
2022-12-17T07:18:20.677Z,98938.84
2022-12-17T07:21:13.427Z,98948.06
2022-12-17T07:24:04.949Z,98953.75
2022-12-17T07:26:54.054Z,98954.63
2022-12-17T07:29:40.635Z,98959.00
2022-12-17T07:32:31.220Z,98963.16
2022-12-17T07:35:17.325Z,98961.41
2022-12-17T07:38:04.906Z,98958.91
2022-12-17T07:40:54.975Z,98962.31
2022-12-17T07:43:42.317Z,98963.25
2022-12-17T07:46:29.792Z,98972.59
2022-12-17T07:49:25.485Z,98977.50
2022-12-17T07:52:21.543Z,98975.69
2022-12-17T07:55:14.218Z,98988.19
2022-12-17T07:58:02.649Z,98988.38
2022-12-17T08:00:50.701Z,98993.53
2022-12-17T08:03:39.610Z,98995.00
2022-12-17T08:06:31.151Z,98997.50
2022-12-17T08:09:18.812Z,98993.34
2022-12-17T08:12:06.637Z,98988.25
2022-12-17T08:14:56.123Z,98988.28
2022-12-17T08:17:44.166Z,98991.69
2022-12-17T08:20:35.359Z,98999.97
2022-12-17T08:23:26.268Z,99003.34
2022-12-17T08:26:13.183Z,99005.72
2022-12-17T08:29:04.573Z,99003.25
2022-12-17T08:31:53.555Z,99004.84
2022-12-17T08:34:41.633Z,99016.50
2022-12-17T08:37:28.541Z,99010.59
2022-12-17T08:40:16.227Z,99018.94
2022-12-17T08:43:03.766Z,99017.25
2022-12-17T08:45:52.052Z,99007.03
2022-12-17T08:48:39.397Z,99018.06
2022-12-17T08:51:26.630Z,99025.56
2022-12-17T08:54:13.517Z,99032.31
2022-12-17T08:57:02.335Z,99030.53
2022-12-17T08:59:48.694Z,99026.91
2022-12-17T09:02:36.315Z,99033.63
2022-12-17T09:05:23.403Z,99033.72
2022-12-17T09:08:17.551Z,99040.28
2022-12-17T09:11:05.880Z,99040.66
2022-12-17T09:13:53.486Z,99048.25
2022-12-17T09:16:41.598Z,99049.94
2022-12-17T09:19:31.794Z,99053.00
2022-12-17T09:22:19.531Z,99049.41
2022-12-17T09:25:07.063Z,99051.91
2022-12-17T09:27:53.305Z,99057.03
2022-12-17T09:30:41.563Z,99048.38
2022-12-17T09:33:34.095Z,99056.72
2022-12-17T09:36:23.224Z,99057.47
2022-12-17T09:39:10.532Z,99065.81
2022-12-17T09:42:11.845Z,99061.44
2022-12-17T09:45:10.714Z,99066.34
2022-12-17T09:48:16.675Z,99067.94
2022-12-17T09:51:05.397Z,99058.56
2022-12-17T09:54:01.724Z,99059.28
2022-12-17T09:56:51.645Z,99057.53
2022-12-17T09:59:47.521Z,99054.81
2022-12-17T10:02:39.065Z,99065.66
2022-12-17T10:05:39.414Z,99060.50
2022-12-17T10:08:30.131Z,99067.16
2022-12-17T10:11:34.562Z,99063.56
2022-12-17T10:14:30.476Z,99059.13
2022-12-17T10:17:17.003Z,99053.25
2022-12-17T10:20:10.478Z,99058.22
2022-12-17T10:23:05.444Z,99057.97
2022-12-17T10:25:54.736Z,99066.09
2022-12-17T10:28:43.831Z,99059.19
2022-12-17T10:31:37.045Z,99063.44
2022-12-17T10:34:27.491Z,99070.88
2022-12-17T10:37:13.696Z,99063.97
2022-12-17T10:40:02.470Z,99062.06
2022-12-17T10:42:58.614Z,99061.03
2022-12-17T10:45:50.970Z,99054.13
2022-12-17T10:48:41.833Z,99053.06
2022-12-17T10:51:40.257Z,99061.50
2022-12-17T10:54:47.022Z,99064.78
2022-12-17T10:57:49.333Z,99059.41
2022-12-17T11:00:49.437Z,99070.19
2022-12-17T11:03:52.953Z,99071.81
2022-12-17T11:06:46.348Z,99076.69
2022-12-17T11:09:53.126Z,99085.75
2022-12-17T11:12:48.648Z,99081.31
2022-12-17T11:15:42.971Z,99075.28
2022-12-17T11:18:39.268Z,99082.03
2022-12-17T11:21:34.252Z,99083.50
2022-12-17T11:24:22.913Z,99078.22
2022-12-17T11:27:15.006Z,99077.13
2022-12-17T11:30:04.523Z,99076.91
2022-12-17T11:33:28.968Z,99076.72
2022-12-17T11:36:36.823Z,99063.78
2022-12-17T11:39:35.694Z,99061.13
2022-12-17T11:42:33.090Z,99068.66
2022-12-17T11:45:38.189Z,99055.78
2022-12-17T11:48:36.225Z,99057.22
2022-12-17T11:51:35.379Z,99056.28
2022-12-17T11:54:39.084Z,99057.84
2022-12-17T11:57:43.488Z,99056.72
2022-12-17T12:00:39.468Z,99060.63
2022-12-17T12:03:49.619Z,99055.28
2022-12-17T12:06:47.953Z,99049.19
2022-12-17T12:09:47.011Z,99048.09
2022-12-17T12:12:51.605Z,99051.31
2022-12-17T12:15:59.999Z,99046.09
2022-12-17T12:19:01.140Z,99036.63
2022-12-17T12:21:59.923Z,99038.09
2022-12-17T12:25:38.435Z,99040.41
2022-12-17T12:28:46.626Z,99037.56
2022-12-17T12:31:50.490Z,99032.22
2022-12-17T12:34:44.504Z,99034.59
2022-12-17T12:37:36.639Z,99034.34
2022-12-17T12:40:33.562Z,99038.38
2022-12-17T12:43:30.402Z,99038.09
2022-12-17T12:46:25.959Z,99035.06
2022-12-17T12:49:23.091Z,99030.63
2022-12-17T12:52:13.214Z,99021.13
2022-12-17T12:55:13.835Z,99029.44
2022-12-17T12:58:14.652Z,99028.47
2022-12-17T13:01:13.239Z,99016.44
2022-12-17T13:04:11.075Z,99021.22
2022-12-17T13:06:50.188Z,99013.34
2022-12-17T13:09:39.302Z,99013.22
2022-12-17T13:12:31.808Z,99014.75
2022-12-17T13:15:20.613Z,99016.16
2022-12-17T13:18:06.832Z,99017.69
2022-12-17T13:20:37.128Z,99017.53
2022-12-17T13:23:34.716Z,99010.53
2022-12-17T13:26:26.122Z,99011.16
2022-12-17T13:29:13.133Z,99004.19
2022-12-17T13:32:19.940Z,99016.00
2022-12-17T13:35:10.230Z,99017.50
2022-12-17T13:37:49.027Z,99011.38
2022-12-17T13:40:45.814Z,99007.13
2022-12-17T13:43:22.273Z,99011.25
2022-12-17T13:45:57.706Z,99015.31
2022-12-17T13:48:29.327Z,99013.59
2022-12-17T13:51:02.870Z,99012.50
2022-12-17T13:53:35.927Z,99019.25
2022-12-17T13:56:07.035Z,99026.03
2022-12-17T13:58:38.876Z,99028.56
2022-12-17T14:01:13.226Z,99032.78
2022-12-17T14:04:07.981Z,99022.44
2022-12-17T14:06:40.610Z,99034.28
2022-12-17T14:09:19.019Z,99038.44
2022-12-17T14:12:08.617Z,99040.06
2022-12-17T14:14:42.801Z,99038.28
2022-12-17T14:17:21.512Z,99044.09
2022-12-17T14:20:00.301Z,99043.94
2022-12-17T14:22:38.221Z,99043.81
2022-12-17T14:25:17.473Z,99039.59
2022-12-17T14:27:57.201Z,99044.94
2022-12-17T14:30:42.916Z,99040.63
2022-12-17T14:33:29.575Z,99041.41
2022-12-17T14:36:00.549Z,99042.16
2022-12-17T14:38:38.405Z,99048.09
2022-12-17T14:41:32.879Z,99044.69
2022-12-17T14:44:06.082Z,99041.19
2022-12-17T14:46:36.392Z,99052.34
2022-12-17T14:49:20.122Z,99051.53
2022-12-17T14:51:51.474Z,99051.53
2022-12-17T14:54:31.758Z,99059.41
2022-12-17T14:57:02.034Z,99066.41
2022-12-17T14:59:38.869Z,99070.63
2022-12-17T15:02:24.199Z,99071.38
2022-12-17T15:04:57.999Z,99074.75
2022-12-17T15:07:29.689Z,99084.91
2022-12-17T15:10:03.487Z,99080.69
2022-12-17T15:12:34.526Z,99088.47
2022-12-17T15:15:05.878Z,99089.22
2022-12-17T15:17:35.931Z,99091.88
2022-12-17T15:20:07.253Z,99092.06
2022-12-17T15:22:43.291Z,99092.47
2022-12-17T15:25:15.271Z,99092.59
2022-12-17T15:27:45.120Z,99088.56
2022-12-17T15:30:20.536Z,99090.28
2022-12-17T15:32:50.473Z,99080.09
2022-12-17T15:35:20.452Z,99089.34
2022-12-17T15:37:50.879Z,99098.16
2022-12-17T15:40:21.036Z,99092.53
2022-12-17T15:43:31.079Z,99104.53
2022-12-17T15:46:03.428Z,99097.06
2022-12-17T15:48:34.732Z,99105.59
2022-12-17T15:51:05.285Z,99107.53
2022-12-17T15:53:36.460Z,99106.69
2022-12-17T15:56:07.912Z,99111.00
2022-12-17T15:58:37.695Z,99102.44
2022-12-17T16:01:10.277Z,99104.91
2022-12-17T16:03:41.037Z,99109.28
2022-12-17T16:06:11.130Z,99102.47
2022-12-17T16:08:41.298Z,99099.22
2022-12-17T16:11:13.450Z,99106.13
2022-12-17T16:13:43.379Z,99107.06
2022-12-17T16:16:15.506Z,99109.03
2022-12-17T16:18:45.890Z,99112.41
2022-12-17T16:21:16.700Z,99113.25
2022-12-17T16:23:45.365Z,99107.41
2022-12-17T16:26:16.095Z,99120.19
2022-12-17T16:28:45.103Z,99123.56
2022-12-17T16:31:18.574Z,99121.91
2022-12-17T16:33:48.964Z,99127.16
2022-12-17T16:36:22.313Z,99126.41
2022-12-17T16:38:53.903Z,99135.97
2022-12-17T16:41:23.980Z,99133.59
2022-12-17T16:43:53.709Z,99129.34
2022-12-17T16:46:31.106Z,99127.72
2022-12-17T16:49:06.410Z,99129.66
2022-12-17T16:51:35.825Z,99134.78
2022-12-17T16:54:09.119Z,99138.28
2022-12-17T16:56:40.584Z,99137.53
2022-12-17T16:59:12.080Z,99137.56
2022-12-17T17:01:46.472Z,99138.53
2022-12-17T17:04:18.930Z,99134.38
2022-12-17T17:06:50.400Z,99135.31
2022-12-17T17:09:21.120Z,99146.47
2022-12-17T17:11:52.090Z,99143.97
2022-12-17T17:14:21.485Z,99153.38
2022-12-17T17:16:52.218Z,99161.03
2022-12-17T17:19:22.653Z,99152.69
2022-12-17T17:21:55.046Z,99156.19
2022-12-17T17:24:27.530Z,99152.88
2022-12-17T17:26:58.779Z,99159.88
2022-12-17T17:29:29.066Z,99160.00
2022-12-17T17:32:10.451Z,99160.91
2022-12-17T17:34:41.815Z,99166.84
2022-12-17T17:37:11.631Z,99163.56
2022-12-17T17:39:41.203Z,99164.41
2022-12-17T17:42:10.766Z,99158.69
2022-12-17T17:44:40.602Z,99163.06
2022-12-17T17:47:12.564Z,99160.56
2022-12-17T17:49:42.711Z,99168.22
2022-12-17T17:52:12.040Z,99165.69
2022-12-17T17:54:42.317Z,99176.88
2022-12-17T17:57:12.709Z,99179.47
2022-12-17T17:59:41.804Z,99174.63
2022-12-17T18:02:15.371Z,99186.53
2022-12-17T18:04:45.968Z,99182.25
2022-12-17T18:07:25.312Z,99177.28
2022-12-17T18:09:55.120Z,99174.84
2022-12-17T18:12:41.198Z,99179.97
2022-12-17T18:15:15.220Z,99180.91
2022-12-17T18:17:51.729Z,99184.34
2022-12-17T18:20:23.278Z,99184.34
2022-12-17T18:22:53.465Z,99187.00
2022-12-17T18:25:22.654Z,99184.50
2022-12-17T18:27:54.130Z,99184.56
2022-12-17T18:30:25.737Z,99183.75
2022-12-17T18:32:57.430Z,99195.84
2022-12-17T18:35:29.165Z,99196.66
2022-12-17T18:37:58.193Z,99200.84
2022-12-17T18:40:33.142Z,99193.44
2022-12-17T18:43:20.134Z,99195.16
2022-12-17T18:45:49.920Z,99191.75
2022-12-17T18:48:21.262Z,99209.56
2022-12-17T18:50:50.105Z,99202.88
2022-12-17T18:53:19.808Z,99216.47
2022-12-17T18:55:48.646Z,99211.50
2022-12-17T18:58:18.076Z,99212.41
2022-12-17T19:00:47.217Z,99215.81
2022-12-17T19:03:15.795Z,99220.19
2022-12-17T19:05:53.949Z,99217.00
2022-12-17T19:08:24.100Z,99223.72
2022-12-17T19:10:53.135Z,99222.19
2022-12-17T19:13:22.960Z,99217.19
2022-12-17T19:15:54.021Z,99214.66
2022-12-17T19:18:24.009Z,99209.56
2022-12-17T19:21:00.045Z,99214.75
2022-12-17T19:23:33.671Z,99210.56
2022-12-17T19:26:12.987Z,99213.91
2022-12-17T19:28:42.751Z,99220.84
2022-12-17T19:31:12.808Z,99218.38
2022-12-17T19:33:42.902Z,99220.19
2022-12-17T19:36:17.853Z,99222.81
2022-12-17T19:38:47.296Z,99217.03
2022-12-17T19:41:20.733Z,99228.84
2022-12-17T19:43:56.810Z,99233.16
2022-12-17T19:46:26.697Z,99235.84
2022-12-17T19:48:57.368Z,99236.78
2022-12-17T19:51:30.292Z,99236.78
2022-12-17T19:54:06.367Z,99230.81
2022-12-17T19:56:37.848Z,99233.44
2022-12-17T19:59:09.226Z,99231.81
2022-12-17T20:01:42.046Z,99231.06
2022-12-17T20:04:15.529Z,99242.03
2022-12-17T20:06:47.126Z,99251.41
2022-12-17T20:09:17.492Z,99252.31
2022-12-17T20:11:47.521Z,99258.41
2022-12-17T20:14:21.513Z,99258.50
2022-12-17T20:16:53.650Z,99255.25
2022-12-17T20:19:25.032Z,99254.53
2022-12-17T20:21:56.619Z,99261.22
2022-12-17T20:24:31.514Z,99258.03
2022-12-17T20:27:02.418Z,99259.81
2022-12-17T20:29:32.909Z,99261.56
2022-12-17T20:32:03.926Z,99258.97
2022-12-17T20:34:34.432Z,99252.28
2022-12-17T20:37:05.746Z,99260.00
2022-12-17T20:39:34.382Z,99260.09
2022-12-17T20:42:04.140Z,99260.13
2022-12-17T20:44:33.760Z,99259.34
2022-12-17T20:47:03.159Z,99246.88
2022-12-17T20:49:32.686Z,99253.53
2022-12-17T20:52:04.440Z,99262.06
2022-12-17T20:54:34.264Z,99256.28
2022-12-17T20:57:03.890Z,99254.69
2022-12-17T20:59:35.134Z,99252.06
2022-12-17T21:02:04.223Z,99256.31
2022-12-17T21:04:34.085Z,99253.88
2022-12-17T21:07:06.240Z,99252.19
2022-12-17T21:09:36.838Z,99260.81
2022-12-17T21:12:06.700Z,99256.69
2022-12-17T21:14:37.428Z,99246.44
2022-12-17T21:17:09.684Z,99258.34
2022-12-17T21:19:40.232Z,99259.34
2022-12-17T21:22:13.845Z,99268.59
2022-12-17T21:24:43.933Z,99260.97
2022-12-17T21:27:15.209Z,99271.13
2022-12-17T21:29:46.595Z,99271.13
2022-12-17T21:32:17.305Z,99275.34
2022-12-17T21:34:46.927Z,99269.47
2022-12-17T21:37:17.988Z,99281.44
2022-12-17T21:39:47.706Z,99274.22
2022-12-17T21:42:48.584Z,99281.06
2022-12-17T21:45:18.679Z,99291.97
2022-12-17T21:47:48.013Z,99292.91
2022-12-17T21:50:18.965Z,99294.63
2022-12-17T21:52:50.180Z,99293.06
2022-12-17T21:55:21.564Z,99289.75
2022-12-17T21:57:51.928Z,99292.84
2022-12-17T22:00:22.985Z,99296.31
2022-12-17T22:02:52.533Z,99307.66
2022-12-17T22:05:21.132Z,99303.63
2022-12-17T22:07:52.216Z,99301.88
2022-12-17T22:10:44.576Z,99305.91
2022-12-17T22:13:29.598Z,99305.91
2022-12-17T22:15:58.526Z,99293.66
2022-12-17T22:18:29.388Z,99296.09
2022-12-17T22:21:03.448Z,99297.81
2022-12-17T22:23:34.976Z,99287.81
2022-12-17T22:26:09.915Z,99293.91
2022-12-17T22:28:41.949Z,99299.78
2022-12-17T22:31:32.520Z,99299.84
2022-12-17T22:34:56.099Z,99305.00
2022-12-17T22:37:58.160Z,99294.75
2022-12-17T22:44:31.159Z,99309.22
2022-12-17T22:44:44.080Z,99313.41
2022-12-17T22:45:43.836Z,99313.41
2022-12-17T22:48:15.952Z,99297.34
2022-12-17T22:50:51.474Z,99303.19
2022-12-17T22:53:37.361Z,99306.81
2022-12-17T22:56:18.848Z,99310.91
2022-12-17T22:58:56.153Z,99306.75
2022-12-17T23:01:26.046Z,99315.22
2022-12-17T23:03:58.991Z,99321.94
2022-12-17T23:06:29.384Z,99317.94
2022-12-17T23:08:59.934Z,99308.63
2022-12-17T23:11:32.100Z,99316.47
2022-12-17T23:14:03.532Z,99310.66
2022-12-17T23:16:34.555Z,99316.50
2022-12-17T23:19:04.288Z,99324.00
2022-12-17T23:21:33.308Z,99319.78
2022-12-17T23:24:02.601Z,99325.53
2022-12-17T23:26:36.346Z,99324.69
2022-12-17T23:29:13.578Z,99319.53
2022-12-17T23:31:46.501Z,99317.50
2022-12-17T23:34:15.218Z,99319.16
2022-12-17T23:36:44.361Z,99309.97
2022-12-17T23:39:13.914Z,99305.00
2022-12-17T23:41:44.871Z,99295.69
2022-12-17T23:44:14.395Z,99293.19
2022-12-17T23:46:44.251Z,99285.53
2022-12-17T23:49:14.937Z,99299.16
2022-12-17T23:51:44.789Z,99304.25
2022-12-17T23:54:13.274Z,99302.88
2022-12-17T23:56:46.262Z,99304.81
2022-12-17T23:59:15.696Z,99297.16
